OMAA

Abu Dhabi International Airport

Airport
ICAO code
OMAA
IATA Code
AUH
Summary
ICAO Region
MID
ICAO Territory
Location

Abu Dhabi, Abu Dhabi

Serving
Abu Dhabi
Elevation
88 ft
Coordinates
24° 25' 59" N , 54° 39' 4" E
KCC
BWh
Airport LOS
Parallel Runway Operation
Airport WX
Fog
Metar
Observation
OMAA 120200Z 20005KT 170V240 8000 NSC 33/28 Q0993 NOSIG
Station
Abu Dhabi International Airport
Date/Time
2022-08-12 02:00:00
Wind direction
200°
Wind speed
05 kts
Lowest cloud amount
nil significant cloud
Temperature
33°C
Dew point
28°C
Humidity
75%
QNH
993 hPa
Weather condition
n/a

International airport to the east of the city of Abu Dhabi.

Climatology

Hot Desert Climate (Köppen climate classification BWh)

Runways

Designator Length Width Surface Rops
13/31 4100 45 ASP Yes/Yes

SKYbrary Partners:

Safety knowledge contributed by: